Jacksboro, Texas
Current Conditions -  °F | °C
As of 1:35 PM on Tuesday 21 Oct 2014 (Local Time) from KXBP Reporting Station
Clear Clear  
Wind Chill: 81°   Ceiling: Unl
Heat Index: 81°   Visibility: 10mi
Dew Point: 58°   Wind: 3mph
Humidity: 45%   Direction: 170°S
Pressure: 30.08"   Gusts: NA
Location:  33.22°N, 98.16°W
Report Text: KXBP 211835Z AUTO 17003KT 10SM CLR 27/14 A3008 RMK AO2 T02700143
Loading
Personal Weather Stations






























Interactive Weather Map
Tropical Storm Tracking
New forecast layout! Learn more

10-Day Weather Forecast

Advertisements
Track Severe Weather on mobile